Time;durP1;ratioP1;P1;durP2;ratioP2;P2;SDS_P1;SDS_P2;PMS_P1;PMS_P2;Temp;Humidity;BMP_temperature;BMP_pressure;BME280_temperature;BME280_humidity;BME280_pressure;Samples;Min_cycle;Max_cycle;Signal;HPM_P1;HPM_P2
2024/03/04 00:02:24;;;;;;;21.23;12.87;;;11.40;99.90;;;;;;6126187;23;20462;-63
2024/03/04 00:04:51;;;;;;;34.80;17.97;;;11.40;99.90;;;;;;6126771;23;20443;-63
2024/03/04 00:07:18;;;;;;;19.63;13.10;;;11.40;99.90;;;;;;6126586;23;20495;-64
2024/03/04 00:09:46;;;;;;;22.97;13.27;;;11.30;99.90;;;;;;6126049;23;20407;-64
2024/03/04 00:12:14;;;;;;;18.83;13.23;;;11.30;99.90;;;;;;6125686;23;20431;-64
2024/03/04 00:14:41;;;;;;;22.30;13.27;;;11.30;99.90;;;;;;6126083;23;20490;-65
2024/03/04 00:17:08;;;;;;;25.20;13.20;;;11.30;99.90;;;;;;6126279;23;20442;-64
2024/03/04 00:19:36;;;;;;;24.20;15.13;;;11.30;99.90;;;;;;6126386;23;20407;-65
2024/03/04 00:22:03;;;;;;;22.20;14.30;;;11.20;99.90;;;;;;6125344;23;20803;-64
2024/03/04 00:24:32;;;;;;;25.20;15.23;;;11.20;99.90;;;;;;6125857;23;20411;-63
2024/03/04 00:27:00;;;;;;;21.67;13.03;;;11.20;99.90;;;;;;6125933;23;20466;-64
2024/03/04 00:29:27;;;;;;;24.70;14.50;;;11.20;99.90;;;;;;6125437;23;20419;-65
2024/03/04 00:31:54;;;;;;;22.63;13.37;;;11.10;99.90;;;;;;6125999;23;20515;-64
2024/03/04 00:34:21;;;;;;;23.90;13.70;;;11.10;99.90;;;;;;6125746;23;20418;-64
2024/03/04 00:36:48;;;;;;;23.43;14.97;;;11.10;99.90;;;;;;6125990;23;20414;-64
2024/03/04 00:39:17;;;;;;;26.00;15.63;;;11.10;99.90;;;;;;6125856;23;20458;-64
2024/03/04 00:41:46;;;;;;;29.40;14.43;;;11.10;99.90;;;;;;6124689;23;20819;-64
2024/03/04 00:44:14;;;;;;;21.40;13.60;;;11.10;99.90;;;;;;6125884;23;20816;-63
2024/03/04 00:46:41;;;;;;;23.77;15.27;;;11.00;99.90;;;;;;6125897;23;20494;-63
2024/03/04 00:49:08;;;;;;;24.03;14.70;;;11.00;99.90;;;;;;6125641;23;20462;-63
2024/03/04 00:51:36;;;;;;;22.70;15.30;;;11.00;99.90;;;;;;6125557;23;20450;-64
2024/03/04 00:54:04;;;;;;;22.73;14.83;;;10.90;99.90;;;;;;6126050;23;20411;-63
2024/03/04 00:56:31;;;;;;;25.60;17.10;;;10.90;99.90;;;;;;6125744;23;20430;-64
2024/03/04 00:58:59;;;;;;;23.70;14.63;;;10.90;99.90;;;;;;6125761;23;20446;-64
2024/03/04 01:01:27;;;;;;;21.80;14.00;;;10.90;99.90;;;;;;6125211;23;20404;-63
2024/03/04 01:03:54;;;;;;;24.33;15.50;;;10.80;99.90;;;;;;6125671;23;20957;-63
2024/03/04 01:06:22;;;;;;;22.10;14.87;;;10.80;99.90;;;;;;6125859;23;20469;-63
2024/03/04 01:08:49;;;;;;;25.67;15.60;;;10.80;99.90;;;;;;6125055;23;20407;-63
2024/03/04 01:11:16;;;;;;;23.33;16.30;;;10.80;99.90;;;;;;6125134;23;20443;-64
2024/03/04 01:13:43;;;;;;;28.90;15.80;;;10.80;99.90;;;;;;6125635;23;20411;-64
2024/03/04 01:16:10;;;;;;;29.87;17.27;;;10.80;99.90;;;;;;6127640;23;20446;-65
2024/03/04 01:18:38;;;;;;;24.90;15.37;;;10.70;99.90;;;;;;6128208;23;20431;-63
2024/03/04 01:21:06;;;;;;;30.97;17.63;;;10.70;99.90;;;;;;6128019;23;20434;-64
2024/03/04 01:23:33;;;;;;;30.83;17.57;;;10.70;99.90;;;;;;6126605;23;20955;-64
2024/03/04 01:26:00;;;;;;;32.90;18.60;;;10.70;99.90;;;;;;6125424;23;20415;-64
2024/03/04 01:28:28;;;;;;;29.50;16.67;;;10.60;99.90;;;;;;6124797;23;20414;-63
2024/03/04 01:30:55;;;;;;;29.10;17.40;;;10.60;99.90;;;;;;6125348;23;20962;-63
2024/03/04 01:33:22;;;;;;;27.37;18.50;;;10.60;99.90;;;;;;6124708;23;20430;-63
2024/03/04 01:35:51;;;;;;;29.43;19.73;;;10.60;99.90;;;;;;6125275;23;20779;-63
2024/03/04 01:38:17;;;;;;;27.40;18.57;;;10.60;99.90;;;;;;6124993;23;20462;-64
2024/03/04 01:40:44;;;;;;;31.97;19.30;;;10.60;99.90;;;;;;6124769;23;20407;-65
2024/03/04 01:43:11;;;;;;;30.77;18.43;;;10.60;99.90;;;;;;6124730;23;20433;-65
2024/03/04 01:45:38;;;;;;;31.53;20.20;;;10.50;99.90;;;;;;6125219;23;20438;-64
2024/03/04 01:48:06;;;;;;;25.57;18.03;;;10.50;99.90;;;;;;6124882;23;20407;-64
2024/03/04 01:50:35;;;;;;;30.67;20.20;;;10.50;99.90;;;;;;6125247;23;20475;-64
2024/03/04 01:53:08;;;;;;;29.03;17.97;;;10.40;99.90;;;;;;6124489;23;20434;-63
2024/03/04 01:55:38;;;;;;;31.57;16.60;;;10.40;99.90;;;;;;6125247;23;20415;-65
2024/03/04 01:58:06;;;;;;;32.47;19.47;;;10.40;99.90;;;;;;6125066;23;20438;-64
2024/03/04 02:00:39;;;;;;;36.03;19.53;;;10.40;99.90;;;;;;6124117;23;20403;-63
2024/03/04 02:03:07;;;;;;;32.20;19.73;;;10.40;99.90;;;;;;6124586;23;20461;-63
2024/03/04 02:05:34;;;;;;;33.83;20.10;;;10.40;99.90;;;;;;6124780;23;20444;-65
2024/03/04 02:08:02;;;;;;;27.83;19.80;;;10.30;99.90;;;;;;6125093;23;20889;-64
2024/03/04 02:10:29;;;;;;;29.37;19.57;;;10.30;99.90;;;;;;6124697;23;20442;-65
2024/03/04 02:12:57;;;;;;;32.57;20.07;;;10.20;99.90;;;;;;6124123;23;20468;-64
2024/03/04 02:15:24;;;;;;;33.80;20.37;;;10.20;99.90;;;;;;6125221;23;20969;-65
2024/03/04 02:17:51;;;;;;;33.27;19.20;;;10.20;99.90;;;;;;6125121;23;20407;-64
2024/03/04 02:20:19;;;;;;;33.67;19.97;;;10.20;99.90;;;;;;6125262;23;20403;-64
2024/03/04 02:22:48;;;;;;;37.03;22.10;;;10.20;99.90;;;;;;6124669;23;20459;-64
2024/03/04 02:25:15;;;;;;;41.23;22.77;;;10.20;99.90;;;;;;6124724;23;20790;-65
2024/03/04 02:27:42;;;;;;;32.63;21.20;;;10.10;99.90;;;;;;6124926;23;20403;-65
2024/03/04 02:30:11;;;;;;;33.40;21.47;;;10.20;99.90;;;;;;6124392;23;20407;-64
2024/03/04 02:32:39;;;;;;;29.40;19.80;;;10.20;99.90;;;;;;6124412;23;20522;-64
2024/03/04 02:35:07;;;;;;;32.40;20.03;;;10.10;99.90;;;;;;6124977;23;20411;-64
2024/03/04 02:37:36;;;;;;;35.27;21.70;;;10.10;99.90;;;;;;6124955;23;20420;-63
2024/03/04 02:40:06;;;;;;;34.33;22.27;;;10.10;99.90;;;;;;6125192;23;20407;-64
2024/03/04 02:42:33;;;;;;;30.90;21.33;;;10.10;99.90;;;;;;6125195;23;20423;-62
2024/03/04 02:45:00;;;;;;;35.90;21.60;;;10.10;99.90;;;;;;6125065;23;20893;-64
2024/03/04 02:47:27;;;;;;;34.50;22.40;;;10.10;99.90;;;;;;6124922;23;20499;-63
2024/03/04 02:49:53;;;;;;;38.63;25.50;;;10.00;99.90;;;;;;6124575;23;20434;-63
2024/03/04 02:52:20;;;;;;;36.10;23.10;;;10.00;99.90;;;;;;6123988;23;20474;-63
2024/03/04 02:54:47;;;;;;;40.47;24.17;;;10.00;99.90;;;;;;6124435;23;20461;-63
2024/03/04 02:57:17;;;;;;;42.70;21.00;;;10.00;99.90;;;;;;6124160;23;20523;-63
2024/03/04 02:59:44;;;;;;;43.37;23.23;;;9.90;99.90;;;;;;6124402;23;20431;-62
2024/03/04 03:02:11;;;;;;;36.50;21.83;;;9.90;99.90;;;;;;6124010;23;20419;-63
2024/03/04 03:04:38;;;;;;;36.90;22.20;;;9.90;99.90;;;;;;6125096;23;20897;-64
2024/03/04 03:07:05;;;;;;;34.40;23.03;;;9.90;99.90;;;;;;6125141;23;20458;-64
2024/03/04 03:09:32;;;;;;;42.40;26.37;;;9.80;99.90;;;;;;6125145;23;20471;-63
2024/03/04 03:11:59;;;;;;;38.43;25.07;;;9.80;99.90;;;;;;6124957;23;20562;-64
2024/03/04 03:14:28;;;;;;;35.03;22.40;;;9.80;99.90;;;;;;6126349;23;20407;-63
2024/03/04 03:16:55;;;;;;;38.30;24.80;;;9.80;99.90;;;;;;6126942;23;20479;-64
2024/03/04 03:19:22;;;;;;;37.43;23.67;;;9.80;99.90;;;;;;6128146;23;20407;-64
2024/03/04 03:21:49;;;;;;;36.87;24.40;;;9.80;99.90;;;;;;6127840;23;20567;-64
2024/03/04 03:24:16;;;;;;;42.60;25.43;;;9.80;99.90;;;;;;6127332;23;20417;-63
2024/03/04 03:26:43;;;;;;;38.00;23.33;;;9.80;99.90;;;;;;6127502;23;20435;-63
2024/03/04 03:29:10;;;;;;;39.33;24.87;;;9.80;99.90;;;;;;6126983;23;20410;-63
2024/03/04 03:31:38;;;;;;;40.10;23.90;;;9.80;99.90;;;;;;6125661;23;20482;-63
2024/03/04 03:34:05;;;;;;;39.93;23.97;;;9.70;99.90;;;;;;6125984;23;20935;-63
2024/03/04 03:36:32;;;;;;;47.03;27.97;;;9.70;99.90;;;;;;6126438;23;20717;-63
2024/03/04 03:38:59;;;;;;;34.10;21.50;;;9.70;99.90;;;;;;6125870;23;20485;-63
2024/03/04 03:41:26;;;;;;;39.67;23.53;;;9.70;99.90;;;;;;6125972;23;20952;-64
2024/03/04 03:43:53;;;;;;;44.77;24.90;;;9.70;99.90;;;;;;6126145;23;20466;-63
2024/03/04 03:46:20;;;;;;;42.87;26.33;;;9.70;99.90;;;;;;6126342;23;20781;-63
2024/03/04 03:48:49;;;;;;;38.93;25.47;;;9.70;99.90;;;;;;6126413;23;20726;-64
2024/03/04 03:51:15;;;;;;;40.57;25.20;;;9.70;99.90;;;;;;6125770;23;20474;-63
2024/03/04 03:53:42;;;;;;;39.63;24.70;;;9.70;99.90;;;;;;6126248;23;20438;-64
2024/03/04 03:56:11;;;;;;;39.20;23.93;;;9.70;99.90;;;;;;6127787;23;20439;-64
2024/03/04 03:58:38;;;;;;;39.30;25.47;;;9.60;99.90;;;;;;6127618;23;20471;-64
2024/03/04 04:01:05;;;;;;;41.00;26.17;;;9.60;99.90;;;;;;6128012;23;20516;-63
2024/03/04 04:03:33;;;;;;;39.20;24.67;;;9.60;99.90;;;;;;6126911;23;20478;-63
2024/03/04 04:06:02;;;;;;;44.07;23.90;;;9.60;99.90;;;;;;6127549;23;20489;-64
2024/03/04 04:08:29;;;;;;;45.50;25.23;;;9.50;99.90;;;;;;6127354;23;20407;-63
2024/03/04 04:10:56;;;;;;;46.10;26.03;;;9.60;99.90;;;;;;6126722;23;20407;-63
2024/03/04 04:13:23;;;;;;;34.30;23.20;;;9.50;99.90;;;;;;6125735;23;20827;-63
2024/03/04 04:15:50;;;;;;;35.90;24.87;;;9.50;99.90;;;;;;6125649;23;20446;-63
2024/03/04 04:18:17;;;;;;;41.10;26.10;;;9.50;99.90;;;;;;6126039;23;20403;-64
2024/03/04 04:20:44;;;;;;;39.73;24.37;;;9.50;99.90;;;;;;6126126;23;20466;-64
2024/03/04 04:23:13;;;;;;;44.00;25.37;;;9.50;99.90;;;;;;6124708;23;20438;-64
2024/03/04 04:25:40;;;;;;;42.60;25.20;;;9.50;99.90;;;;;;6126013;23;20738;-64
2024/03/04 04:28:07;;;;;;;45.33;25.77;;;9.50;99.90;;;;;;6125849;23;20407;-64
2024/03/04 04:30:36;;;;;;;40.37;28.17;;;9.50;99.90;;;;;;6125479;23;20435;-63
2024/03/04 04:33:03;;;;;;;39.50;23.60;;;9.50;99.90;;;;;;6125364;23;20823;-62
2024/03/04 04:35:30;;;;;;;43.43;27.50;;;9.40;99.90;;;;;;6125373;23;20422;-64
2024/03/04 04:37:57;;;;;;;47.13;24.80;;;9.40;99.90;;;;;;6125634;23;20724;-63
2024/03/04 04:40:26;;;;;;;42.00;28.63;;;9.40;99.90;;;;;;6126157;23;20435;-64
2024/03/04 04:42:52;;;;;;;50.00;27.43;;;9.30;99.90;;;;;;6124782;23;20986;-64
2024/03/04 04:45:22;;;;;;;43.70;25.30;;;9.30;99.90;;;;;;6125775;23;20403;-63
2024/03/04 04:47:49;;;;;;;49.23;27.67;;;9.30;99.90;;;;;;6125671;23;20478;-63
2024/03/04 04:50:16;;;;;;;50.23;26.90;;;9.30;99.90;;;;;;6125703;23;20407;-64
2024/03/04 04:52:43;;;;;;;48.97;25.40;;;9.30;99.90;;;;;;6125442;23;20447;-62
2024/03/04 04:55:10;;;;;;;46.10;27.30;;;9.20;99.90;;;;;;6125581;23;20411;-64
2024/03/04 04:57:39;;;;;;;48.70;26.20;;;9.20;99.90;;;;;;6125891;23;20485;-63
2024/03/04 05:00:08;;;;;;;49.37;27.40;;;9.30;99.90;;;;;;6125727;23;20736;-63
2024/03/04 05:02:37;;;;;;;49.23;28.67;;;9.20;99.90;;;;;;6124809;23;20526;-64
2024/03/04 05:05:05;;;;;;;52.77;27.67;;;9.30;99.90;;;;;;6125531;23;20490;-65
2024/03/04 05:07:31;;;;;;;45.10;27.23;;;9.20;99.90;;;;;;6125547;23;20767;-64
2024/03/04 05:09:58;;;;;;;48.27;26.40;;;9.30;99.90;;;;;;6124950;23;20936;-63
2024/03/04 05:12:25;;;;;;;44.33;25.47;;;9.20;99.90;;;;;;6124882;23;20953;-64
2024/03/04 05:14:53;;;;;;;43.77;25.43;;;9.20;99.90;;;;;;6125459;23;20913;-64
2024/03/04 05:17:21;;;;;;;45.80;28.10;;;9.20;99.90;;;;;;6125214;23;20407;-63
2024/03/04 05:19:48;;;;;;;44.00;25.40;;;9.20;99.90;;;;;;6125843;23;20403;-65
2024/03/04 05:22:15;;;;;;;45.20;26.37;;;9.20;99.90;;;;;;6124995;23;20455;-64
2024/03/04 05:24:42;;;;;;;42.93;25.77;;;9.20;99.90;;;;;;6125997;23;20498;-64
2024/03/04 05:27:09;;;;;;;49.73;29.20;;;9.20;99.90;;;;;;6125670;23;20664;-64
2024/03/04 05:29:36;;;;;;;56.43;27.17;;;9.20;99.90;;;;;;6125697;23;20787;-62
2024/03/04 05:32:05;;;;;;;43.57;26.43;;;9.20;99.90;;;;;;6125189;23;20531;-63
2024/03/04 05:34:32;;;;;;;45.53;27.70;;;9.10;99.90;;;;;;6124767;23;20897;-64
2024/03/04 05:36:58;;;;;;;40.30;25.10;;;9.20;99.90;;;;;;6125183;23;20470;-63
2024/03/04 05:39:31;;;;;;;52.73;29.73;;;9.10;99.90;;;;;;6125459;23;20442;-65
2024/03/04 05:41:58;;;;;;;44.30;27.97;;;9.10;99.90;;;;;;6125225;23;20502;-62
2024/03/04 05:44:24;;;;;;;47.50;25.73;;;9.10;99.90;;;;;;6125773;23;20408;-64
2024/03/04 05:46:50;;;;;;;48.77;27.40;;;9.10;99.90;;;;;;6125223;23;20416;-64
2024/03/04 05:49:19;;;;;;;46.30;27.10;;;9.10;99.90;;;;;;6125284;23;20407;-64
2024/03/04 05:51:46;;;;;;;53.00;29.30;;;9.10;99.90;;;;;;6124767;23;20241;-63
2024/03/04 05:54:13;;;;;;;40.43;26.77;;;9.10;99.90;;;;;;6125124;23;20478;-64
2024/03/04 05:56:43;;;;;;;45.03;26.10;;;9.10;99.90;;;;;;6125089;23;20403;-64
2024/03/04 05:59:10;;;;;;;48.43;26.17;;;9.20;99.90;;;;;;6125248;23;20890;-64
2024/03/04 06:01:37;;;;;;;50.63;30.80;;;9.20;99.90;;;;;;6124274;23;20454;-63
2024/03/04 06:04:04;;;;;;;49.33;26.77;;;9.20;99.90;;;;;;6124960;23;20404;-64
2024/03/04 06:06:33;;;;;;;47.23;27.20;;;9.20;99.90;;;;;;6125261;23;20407;-63
2024/03/04 06:09:02;;;;;;;57.47;28.13;;;9.20;99.90;;;;;;6125031;23;20454;-64
2024/03/04 06:11:29;;;;;;;48.20;28.07;;;9.20;99.90;;;;;;6124747;23;20733;-63
2024/03/04 06:13:56;;;;;;;43.57;26.30;;;9.10;99.90;;;;;;6124781;23;20803;-64
2024/03/04 06:16:23;;;;;;;47.63;26.17;;;9.10;99.90;;;;;;6125021;23;20431;-64
2024/03/04 06:18:50;;;;;;;43.80;27.80;;;9.10;99.90;;;;;;6124950;23;20434;-63
2024/03/04 06:21:17;;;;;;;44.30;27.70;;;9.00;99.90;;;;;;6124262;23;20468;-64
2024/03/04 06:23:45;;;;;;;49.07;29.87;;;9.00;99.90;;;;;;6124930;23;20397;-63
2024/03/04 06:26:13;;;;;;;53.97;26.80;;;9.00;99.90;;;;;;6125319;23;20729;-62
2024/03/04 06:28:40;;;;;;;43.13;27.70;;;9.00;99.90;;;;;;6124683;23;20403;-64
2024/03/04 06:31:08;;;;;;;49.87;28.40;;;9.00;99.90;;;;;;6124810;23;20506;-63
2024/03/04 06:33:35;;;;;;;42.50;25.10;;;9.00;99.90;;;;;;6123772;23;20453;-64
2024/03/04 06:36:01;;;;;;;44.83;25.73;;;9.00;99.90;;;;;;6125084;23;20770;-64
2024/03/04 06:38:30;;;;;;;47.53;27.80;;;9.00;99.90;;;;;;6125274;23;20782;-64
2024/03/04 06:40:58;;;;;;;45.17;27.47;;;9.10;99.90;;;;;;6125011;23;20408;-64
2024/03/04 06:43:25;;;;;;;58.30;27.60;;;9.10;99.90;;;;;;6124162;23;20423;-65
2024/03/04 06:45:52;;;;;;;49.37;27.37;;;9.10;99.90;;;;;;6125492;23;20972;-64
2024/03/04 06:48:19;;;;;;;45.07;27.73;;;9.10;99.90;;;;;;6127239;23;20407;-64
2024/03/04 06:50:46;;;;;;;42.73;27.60;;;9.20;99.90;;;;;;6129794;23;20434;-64
2024/03/04 06:53:13;;;;;;;44.93;24.77;;;9.20;99.90;;;;;;6126361;23;20447;-64
2024/03/04 06:55:40;;;;;;;46.83;28.93;;;9.20;99.90;;;;;;6128956;23;20407;-64
2024/03/04 06:58:08;;;;;;;43.60;26.50;;;9.20;99.90;;;;;;6128639;23;20584;-63
2024/03/04 07:00:35;;;;;;;51.07;28.40;;;9.20;99.90;;;;;;6127889;23;20477;-64
2024/03/04 07:03:02;;;;;;;43.33;25.53;;;9.20;99.90;;;;;;6126963;23;20561;-63
2024/03/04 07:05:29;;;;;;;50.97;26.93;;;9.30;99.90;;;;;;6126876;23;20457;-63
2024/03/04 07:07:55;;;;;;;48.13;25.50;;;9.30;99.90;;;;;;6126538;23;20411;-63
2024/03/04 07:10:22;;;;;;;44.90;25.27;;;9.30;99.90;;;;;;6126717;23;20404;-64
2024/03/04 07:12:49;;;;;;;49.17;27.00;;;9.40;99.90;;;;;;6125706;23;20447;-64
2024/03/04 07:15:18;;;;;;;41.90;27.93;;;9.40;99.90;;;;;;6126355;23;20842;-64
2024/03/04 07:17:45;;;;;;;51.40;29.23;;;9.40;99.90;;;;;;6126539;23;20785;-65
2024/03/04 07:20:12;;;;;;;43.13;24.47;;;9.50;99.90;;;;;;6126326;23;20403;-64
2024/03/04 07:22:39;;;;;;;49.10;26.77;;;9.50;99.90;;;;;;6125596;23;20600;-63
2024/03/04 07:25:08;;;;;;;47.37;29.17;;;9.50;99.90;;;;;;6126135;23;20889;-64
2024/03/04 07:27:34;;;;;;;38.90;26.67;;;9.60;99.90;;;;;;6126271;23;20482;-63
2024/03/04 07:30:03;;;;;;;43.40;25.93;;;9.60;99.90;;;;;;6126166;23;20403;-65
2024/03/04 07:32:31;;;;;;;43.97;26.00;;;9.70;99.90;;;;;;6125672;23;20441;-64
2024/03/04 07:34:58;;;;;;;44.03;26.20;;;9.80;99.90;;;;;;6126482;23;20470;-65
2024/03/04 07:37:25;;;;;;;46.87;23.87;;;9.80;99.90;;;;;;6126489;23;20415;-65
2024/03/04 07:39:52;;;;;;;39.23;26.97;;;9.80;99.90;;;;;;6126850;23;20490;-63
2024/03/04 07:42:20;;;;;;;44.53;27.60;;;9.90;99.90;;;;;;6126268;23;20873;-64
2024/03/04 07:44:47;;;;;;;53.00;28.67;;;9.90;99.90;;;;;;6125953;23;20407;-63
2024/03/04 07:47:14;;;;;;;52.00;27.67;;;9.90;99.90;;;;;;6126139;23;20407;-63
2024/03/04 07:49:42;;;;;;;41.30;26.50;;;10.00;99.90;;;;;;6125941;23;20494;-64
2024/03/04 07:52:09;;;;;;;44.40;26.67;;;10.10;99.90;;;;;;6125647;23;20461;-64
2024/03/04 07:54:36;;;;;;;45.30;26.33;;;10.10;99.90;;;;;;6125867;23;20443;-63
2024/03/04 07:57:04;;;;;;;50.80;26.10;;;10.20;99.90;;;;;;6125693;23;20841;-64
2024/03/04 07:59:33;;;;;;;45.83;26.50;;;10.20;99.90;;;;;;6125864;23;20772;-64
2024/03/04 08:02:03;;;;;;;37.93;23.63;;;10.30;99.90;;;;;;6125328;23;20933;-63
2024/03/04 08:04:30;;;;;;;40.47;26.60;;;10.30;99.90;;;;;;6125806;23;20407;-63
2024/03/04 08:06:58;;;;;;;49.80;29.50;;;10.40;99.90;;;;;;6125882;23;20486;-63
2024/03/04 08:09:25;;;;;;;46.57;26.90;;;10.50;99.90;;;;;;6125743;23;20494;-63
2024/03/04 08:11:52;;;;;;;38.20;26.07;;;10.50;99.90;;;;;;6124986;23;20486;-64
2024/03/04 08:14:18;;;;;;;39.03;25.03;;;10.60;99.90;;;;;;6125982;23;20940;-64
2024/03/04 08:16:45;;;;;;;37.17;24.93;;;10.70;99.90;;;;;;6126111;23;20486;-64
2024/03/04 08:19:12;;;;;;;48.87;27.17;;;10.80;99.90;;;;;;6125774;23;20403;-64
2024/03/04 08:21:39;;;;;;;55.80;27.27;;;11.00;99.90;;;;;;6125007;23;20427;-64
2024/03/04 08:24:08;;;;;;;46.23;26.93;;;11.10;99.90;;;;;;6125533;23;20407;-64
2024/03/04 08:26:35;;;;;;;37.40;25.97;;;11.10;99.90;;;;;;6126015;23;20407;-63
2024/03/04 08:29:02;;;;;;;43.50;25.30;;;11.20;99.90;;;;;;6125607;23;20490;-64
2024/03/04 08:31:31;;;;;;;42.63;27.17;;;11.20;99.90;;;;;;6125118;23;20407;-62
2024/03/04 08:33:58;;;;;;;41.73;25.87;;;11.20;99.90;;;;;;6125479;23;20522;-63
2024/03/04 08:36:24;;;;;;;39.63;25.67;;;11.30;99.90;;;;;;6126063;23;20442;-63
2024/03/04 08:38:51;;;;;;;43.20;26.03;;;11.40;99.90;;;;;;6126263;23;20790;-63
2024/03/04 08:41:20;;;;;;;47.00;28.00;;;11.50;99.90;;;;;;6125834;23;20751;-64
2024/03/04 08:43:47;;;;;;;40.40;24.40;;;11.60;99.90;;;;;;6126125;23;20409;-64
2024/03/04 08:46:15;;;;;;;42.07;25.50;;;11.70;99.90;;;;;;6125521;23;20410;-64
2024/03/04 08:48:42;;;;;;;45.63;27.50;;;11.80;99.90;;;;;;6125659;23;20449;-63
2024/03/04 08:51:09;;;;;;;42.10;24.77;;;12.00;99.90;;;;;;6125460;23;20726;-64
2024/03/04 08:53:36;;;;;;;34.33;25.47;;;12.10;99.90;;;;;;6125135;23;20530;-63
2024/03/04 08:56:04;;;;;;;39.33;25.53;;;12.20;99.90;;;;;;6125705;23;20407;-64
2024/03/04 08:58:33;;;;;;;47.47;26.80;;;12.30;99.90;;;;;;6125438;23;20410;-65
2024/03/04 09:01:00;;;;;;;35.77;23.33;;;12.30;99.90;;;;;;6125805;23;20407;-65
2024/03/04 09:03:27;;;;;;;46.40;27.63;;;12.40;99.90;;;;;;6124816;23;20420;-64
2024/03/04 09:05:54;;;;;;;37.80;26.77;;;12.60;99.90;;;;;;6125258;23;20797;-63
2024/03/04 09:08:21;;;;;;;44.00;28.07;;;13.00;99.90;;;;;;6125569;23;20395;-64
2024/03/04 09:10:49;;;;;;;37.17;25.37;;;13.50;99.90;;;;;;6125242;23;20408;-64
2024/03/04 09:13:17;;;;;;;32.23;24.67;;;14.20;99.90;;;;;;6124456;23;20498;-63
2024/03/04 09:15:46;;;;;;;29.80;23.30;;;15.00;99.90;;;;;;6125067;23;20415;-65
2024/03/04 09:18:13;;;;;;;40.03;25.47;;;15.80;99.90;;;;;;6124802;23;20407;-64
2024/03/04 09:20:40;;;;;;;35.13;24.97;;;16.10;99.90;;;;;;6124946;23;20403;-64
2024/03/04 09:23:07;;;;;;;39.10;26.60;;;16.00;99.90;;;;;;6124713;23;20458;-65
2024/03/04 09:25:34;;;;;;;44.27;28.90;;;15.80;99.90;;;;;;6125403;23;20411;-64
2024/03/04 09:28:01;;;;;;;39.60;26.30;;;15.70;99.90;;;;;;6124918;23;20890;-64
2024/03/04 09:30:29;;;;;;;40.80;27.67;;;15.40;99.90;;;;;;6124802;23;20450;-64
2024/03/04 09:32:57;;;;;;;42.03;27.53;;;15.10;99.90;;;;;;6124759;23;20466;-63
2024/03/04 09:35:24;;;;;;;47.67;28.00;;;14.80;99.90;;;;;;6124959;23;20411;-65
2024/03/04 09:37:51;;;;;;;39.13;26.80;;;14.70;99.90;;;;;;6125347;23;20403;-64
2024/03/04 09:40:19;;;;;;;45.23;27.30;;;14.70;99.90;;;;;;6125157;23;20924;-64
2024/03/04 09:42:48;;;;;;;40.00;26.87;;;14.60;99.90;;;;;;6124996;23;20434;-65
2024/03/04 09:45:16;;;;;;;40.47;25.20;;;14.40;99.90;;;;;;6125893;23;20744;-64
2024/03/04 09:47:47;;;;;;;43.43;25.73;;;14.40;99.90;;;;;;6125470;23;20800;-63
2024/03/04 09:50:18;;;;;;;38.00;26.13;;;14.30;99.90;;;;;;6125383;23;20706;-63
2024/03/04 09:52:46;;;;;;;38.97;25.40;;;14.10;99.90;;;;;;6124876;23;20474;-64
2024/03/04 09:55:13;;;;;;;44.33;27.70;;;14.00;99.90;;;;;;6124888;23;20454;-64
2024/03/04 09:57:40;;;;;;;36.57;23.87;;;13.80;99.90;;;;;;6125180;23;20410;-64
2024/03/04 10:00:13;;;;;;;52.77;26.77;;;13.70;99.90;;;;;;6124793;23;20407;-64
2024/03/04 10:02:41;;;;;;;41.00;25.27;;;13.60;99.90;;;;;;6124012;23;20473;-64
2024/03/04 10:05:09;;;;;;;37.43;26.37;;;13.50;99.90;;;;;;6124814;23;20399;-64
2024/03/04 10:07:38;;;;;;;41.43;26.73;;;13.40;99.90;;;;;;6125019;23;20474;-64
2024/03/04 10:10:05;;;;;;;40.93;25.80;;;13.30;99.90;;;;;;6124728;23;20448;-64
2024/03/04 10:12:33;;;;;;;49.37;25.90;;;13.30;99.90;;;;;;6124108;23;20427;-64
2024/03/04 10:15:07;;;;;;;39.77;25.60;;;13.20;99.90;;;;;;6124405;23;20443;-63
2024/03/04 10:17:34;;;;;;;45.93;26.87;;;13.20;99.90;;;;;;6124610;23;20396;-64
2024/03/04 10:20:02;;;;;;;40.00;26.37;;;13.20;99.90;;;;;;6124521;23;20406;-64
2024/03/04 10:22:33;;;;;;;39.70;26.33;;;13.20;99.90;;;;;;6124176;23;20431;-64
2024/03/04 10:25:06;;;;;;;39.60;23.80;;;13.10;99.90;;;;;;6124710;23;20387;-64
2024/03/04 10:27:36;;;;;;;38.23;25.40;;;13.10;99.90;;;;;;6124696;23;20387;-65
2024/03/04 10:30:10;;;;;;;41.10;24.47;;;13.10;99.90;;;;;;6124744;23;20418;-64
2024/03/04 10:32:38;;;;;;;38.90;24.83;;;13.20;99.90;;;;;;6124259;23;20765;-64
2024/03/04 10:35:06;;;;;;;39.10;25.27;;;13.30;99.90;;;;;;6125042;23;20873;-64
2024/03/04 10:37:38;;;;;;;43.10;27.97;;;13.40;99.90;;;;;;6125463;23;20908;-65
2024/03/04 10:40:09;;;;;;;44.00;25.70;;;13.50;99.90;;;;;;6125291;23;20470;-65
2024/03/04 10:42:53;;;;;;;39.43;25.23;;;13.60;99.90;;;;;;6125300;23;20751;-67
2024/03/04 10:45:28;;;;;;;36.57;26.13;;;13.80;99.90;;;;;;6154236;23;20505;-64
2024/03/04 10:47:56;;;;;;;43.07;24.80;;;13.80;99.90;;;;;;6184232;23;20417;-64
2024/03/04 10:50:23;;;;;;;41.07;27.37;;;13.90;99.90;;;;;;6184277;23;20401;-64
2024/03/04 10:52:51;;;;;;;44.53;27.27;;;13.90;99.90;;;;;;6164084;23;20940;-63
2024/03/04 10:55:20;;;;;;;35.50;24.10;;;14.00;99.90;;;;;;6154257;23;20442;-65
2024/03/04 10:57:49;;;;;;;36.10;24.63;;;14.00;99.90;;;;;;6153701;23;20447;-65
2024/03/04 11:00:25;;;;;;;43.83;26.93;;;13.90;99.90;;;;;;6154015;23;20497;-65
2024/03/04 11:02:58;;;;;;;39.57;26.50;;;13.90;99.90;;;;;;6153962;23;20752;-63
2024/03/04 11:05:26;;;;;;;48.33;29.07;;;13.80;99.90;;;;;;6153956;23;20386;-64
2024/03/04 11:07:57;;;;;;;43.03;26.80;;;13.80;99.90;;;;;;6154193;23;20450;-65
2024/03/04 11:10:31;;;;;;;42.27;26.00;;;13.70;99.90;;;;;;6154120;23;21024;-65
2024/03/04 11:13:05;;;;;;;44.67;27.63;;;13.70;99.90;;;;;;6154297;23;20740;-65
2024/03/04 11:15:38;;;;;;;44.27;25.87;;;13.70;99.90;;;;;;6156171;23;20485;-63
2024/03/04 11:18:08;;;;;;;38.30;27.30;;;13.70;99.90;;;;;;6154413;23;20410;-64
2024/03/04 11:20:41;;;;;;;42.63;25.27;;;13.80;99.90;;;;;;6154323;23;20387;-66
2024/03/04 11:23:10;;;;;;;47.30;28.17;;;13.80;99.90;;;;;;6153472;23;20513;-63
2024/03/04 11:25:38;;;;;;;44.50;25.53;;;13.90;99.90;;;;;;6153897;23;20402;-64
2024/03/04 11:28:07;;;;;;;42.90;28.80;;;14.10;99.90;;;;;;6154135;23;20402;-63
2024/03/04 11:30:35;;;;;;;45.17;28.23;;;14.20;99.90;;;;;;6153793;23;20482;-64
2024/03/04 11:33:35;;;;;;;47.17;28.97;;;14.30;99.90;;;;;;6154797;23;20458;-63
2024/03/04 11:36:03;;;;;;;52.10;29.57;;;14.30;99.90;;;;;;6155575;23;20896;-62
2024/03/04 11:38:30;;;;;;;46.73;27.70;;;14.30;99.90;;;;;;6155535;23;20412;-63
2024/03/04 11:40:59;;;;;;;44.37;27.60;;;14.30;99.90;;;;;;6155466;23;20437;-62
2024/03/04 11:43:48;;;;;;;46.50;28.77;;;14.30;99.90;;;;;;6155033;23;20477;-63
2024/03/04 11:46:18;;;;;;;44.07;28.90;;;14.40;99.90;;;;;;6155847;23;20426;-64
2024/03/04 11:48:46;;;;;;;45.17;28.57;;;14.30;99.90;;;;;;6155725;23;20501;-64
2024/03/04 11:51:13;;;;;;;55.20;31.00;;;14.30;99.90;;;;;;6155532;23;20493;-64
2024/03/04 11:53:44;;;;;;;43.33;28.70;;;14.40;99.90;;;;;;6155449;23;20446;-64
2024/03/04 11:56:13;;;;;;;38.43;26.47;;;14.50;99.90;;;;;;6155680;23;20394;-64
2024/03/04 11:58:40;;;;;;;42.40;27.90;;;14.60;99.90;;;;;;6155460;23;20413;-63
2024/03/04 12:01:07;;;;;;;47.60;28.87;;;14.60;99.90;;;;;;6155380;23;20434;-64
2024/03/04 12:03:34;;;;;;;43.87;29.37;;;14.80;99.90;;;;;;6155309;23;20493;-62
2024/03/04 12:06:01;;;;;;;41.67;27.00;;;14.90;99.90;;;;;;6155615;23;20494;-63
2024/03/04 12:08:28;;;;;;;49.53;30.30;;;14.90;99.90;;;;;;6155150;23;20417;-61
2024/03/04 12:10:57;;;;;;;41.80;28.50;;;15.00;99.90;;;;;;6155542;23;20752;-63
2024/03/04 12:13:25;;;;;;;43.40;28.93;;;14.90;99.90;;;;;;6154696;23;20793;-64
2024/03/04 12:15:57;;;;;;;46.53;29.90;;;14.80;99.90;;;;;;6155107;23;20902;-65
2024/03/04 12:18:25;;;;;;;44.00;28.93;;;14.70;99.90;;;;;;6155155;23;20386;-63
2024/03/04 12:20:53;;;;;;;47.07;30.20;;;14.70;99.90;;;;;;6155161;23;20413;-63
2024/03/04 12:23:20;;;;;;;46.00;29.80;;;14.60;99.90;;;;;;6155444;23;20426;-64
2024/03/04 12:25:48;;;;;;;54.17;31.00;;;14.60;99.90;;;;;;6155668;23;20727;-64
2024/03/04 12:28:18;;;;;;;55.43;31.00;;;14.60;99.90;;;;;;6155945;23;20811;-63
2024/03/04 12:30:47;;;;;;;52.20;32.57;;;14.60;99.90;;;;;;6155117;23;20989;-64
2024/03/04 12:33:15;;;;;;;50.33;29.73;;;14.60;99.90;;;;;;6154486;23;20422;-63
2024/03/04 12:35:44;;;;;;;42.57;27.87;;;14.50;99.90;;;;;;6156551;23;20496;-65